sensor_id;sensor_type;location;lat;lon;timestamp;pressure;altitude;pressure_sealevel;temperature;humidity
65394;BME280;52002;49.760;6.512;2022-10-26T00:01:04;99852.88;;;12.98;75.48
65394;BME280;52002;49.760;6.512;2022-10-26T00:03:36;99879.00;;;13.00;75.50
65394;BME280;52002;49.760;6.512;2022-10-26T00:06:17;99886.39;;;13.02;75.54
65394;BME280;52002;49.760;6.512;2022-10-26T00:08:45;99887.59;;;13.03;75.59
65394;BME280;52002;49.760;6.512;2022-10-26T00:11:13;99870.17;;;13.03;75.49
65394;BME280;52002;49.760;6.512;2022-10-26T00:13:39;99875.84;;;13.00;75.45
65394;BME280;52002;49.760;6.512;2022-10-26T00:16:08;99873.98;;;13.01;75.49
65394;BME280;52002;49.760;6.512;2022-10-26T00:18:36;99872.64;;;13.01;75.54
65394;BME280;52002;49.760;6.512;2022-10-26T00:21:06;99882.37;;;13.02;75.57
65394;BME280;52002;49.760;6.512;2022-10-26T00:23:33;99876.02;;;13.03;75.57
65394;BME280;52002;49.760;6.512;2022-10-26T00:25:58;99877.86;;;13.02;75.68
65394;BME280;52002;49.760;6.512;2022-10-26T00:28:25;99859.45;;;13.03;75.71
65394;BME280;52002;49.760;6.512;2022-10-26T00:30:51;99854.88;;;13.00;75.60
65394;BME280;52002;49.760;6.512;2022-10-26T00:33:17;99840.66;;;12.99;75.71
65394;BME280;52002;49.760;6.512;2022-10-26T00:36:03;99838.45;;;12.99;75.56
65394;BME280;52002;49.760;6.512;2022-10-26T00:38:19;99845.16;;;12.99;75.70
65394;BME280;52002;49.760;6.512;2022-10-26T00:40:45;99843.16;;;13.01;75.85
65394;BME280;52002;49.760;6.512;2022-10-26T00:45:56;99850.59;;;13.07;75.89
65394;BME280;52002;49.760;6.512;2022-10-26T00:48:29;99840.52;;;13.05;75.84
65394;BME280;52002;49.760;6.512;2022-10-26T00:51:00;99837.84;;;13.05;75.80
65394;BME280;52002;49.760;6.512;2022-10-26T00:53:28;99832.83;;;13.06;75.80
65394;BME280;52002;49.760;6.512;2022-10-26T00:55:55;99825.81;;;13.09;75.76
65394;BME280;52002;49.760;6.512;2022-10-26T00:58:22;99819.94;;;13.10;75.77
65394;BME280;52002;49.760;6.512;2022-10-26T01:00:50;99820.63;;;13.12;75.83
65394;BME280;52002;49.760;6.512;2022-10-26T01:03:17;99825.16;;;13.11;75.84
65394;BME280;52002;49.760;6.512;2022-10-26T01:05:45;99825.16;;;13.11;75.85
65394;BME280;52002;49.760;6.512;2022-10-26T01:08:13;99819.94;;;13.10;75.84
65394;BME280;52002;49.760;6.512;2022-10-26T01:10:41;99819.25;;;13.08;75.80
65394;BME280;52002;49.760;6.512;2022-10-26T01:13:08;99821.11;;;13.07;75.81
65394;BME280;52002;49.760;6.512;2022-10-26T01:21:11;99815.38;;;13.02;76.20
65394;BME280;52002;49.760;6.512;2022-10-26T01:23:46;99820.73;;;13.02;76.29
65394;BME280;52002;49.760;6.512;2022-10-26T01:29:18;99818.56;;;13.01;76.30
65394;BME280;52002;49.760;6.512;2022-10-26T01:32:13;99817.36;;;13.00;76.28
65394;BME280;52002;49.760;6.512;2022-10-26T01:34:46;99818.53;;;12.97;76.40
65394;BME280;52002;49.760;6.512;2022-10-26T01:37:27;99813.68;;;12.97;76.51
65394;BME280;52002;49.760;6.512;2022-10-26T01:40:05;99814.85;;;12.98;76.74
65394;BME280;52002;49.760;6.512;2022-10-26T01:42:32;99807.64;;;12.99;76.72
65394;BME280;52002;49.760;6.512;2022-10-26T01:45:04;99802.28;;;12.99;76.71
65394;BME280;52002;49.760;6.512;2022-10-26T01:47:33;99798.27;;;12.99;76.67
65394;BME280;52002;49.760;6.512;2022-10-26T01:50:02;99803.14;;;12.99;76.74
65394;BME280;52002;49.760;6.512;2022-10-26T01:52:28;99808.33;;;13.01;76.79
65394;BME280;52002;49.760;6.512;2022-10-26T01:55:31;99800.97;;;13.03;76.76
65394;BME280;52002;49.760;6.512;2022-10-26T01:57:53;99800.84;;;13.04;76.78
65394;BME280;52002;49.760;6.512;2022-10-26T02:00:20;99795.47;;;13.04;76.76
65394;BME280;52002;49.760;6.512;2022-10-26T02:08:38;99794.48;;;13.05;76.83
65394;BME280;52002;49.760;6.512;2022-10-26T02:11:35;99784.59;;;13.06;76.73
65394;BME280;52002;49.760;6.512;2022-10-26T02:17:12;99791.31;;;13.10;76.77
65394;BME280;52002;49.760;6.512;2022-10-26T02:19:40;99794.00;;;13.10;76.86
65394;BME280;52002;49.760;6.512;2022-10-26T02:24:52;99801.18;;;13.10;76.86
65394;BME280;52002;49.760;6.512;2022-10-26T02:27:29;99791.00;;;13.13;76.93
65394;BME280;52002;49.760;6.512;2022-10-26T02:29:57;99793.86;;;13.16;76.80
65394;BME280;52002;49.760;6.512;2022-10-26T02:32:27;99794.03;;;13.14;76.63
65394;BME280;52002;49.760;6.512;2022-10-26T02:34:56;99785.95;;;13.10;76.54
65394;BME280;52002;49.760;6.512;2022-10-26T02:37:25;99792.97;;;13.07;76.65
65394;BME280;52002;49.760;6.512;2022-10-26T02:39:53;99778.88;;;13.05;76.81
65394;BME280;52002;49.760;6.512;2022-10-26T02:42:21;99778.54;;;13.04;76.80
65394;BME280;52002;49.760;6.512;2022-10-26T02:44:53;99769.50;;;13.05;76.89
65394;BME280;52002;49.760;6.512;2022-10-26T02:47:20;99772.70;;;13.04;76.85
65394;BME280;52002;49.760;6.512;2022-10-26T02:49:46;99778.88;;;13.05;76.87
65394;BME280;52002;49.760;6.512;2022-10-26T02:55:40;99788.23;;;13.01;76.97
65394;BME280;52002;49.760;6.512;2022-10-26T02:58:07;99783.69;;;12.97;76.93
65394;BME280;52002;49.760;6.512;2022-10-26T03:00:39;99784.17;;;12.93;77.00
65394;BME280;52002;49.760;6.512;2022-10-26T03:03:07;99780.63;;;12.92;77.03
65394;BME280;52002;49.760;6.512;2022-10-26T03:05:33;99777.12;;;12.92;77.11
65394;BME280;52002;49.760;6.512;2022-10-26T03:08:01;99782.97;;;12.91;76.97
65394;BME280;52002;49.760;6.512;2022-10-26T03:10:28;99774.93;;;12.87;77.15
65394;BME280;52002;49.760;6.512;2022-10-26T03:12:54;99767.69;;;12.83;77.08
65394;BME280;52002;49.760;6.512;2022-10-26T03:15:20;99766.52;;;12.82;77.32
65394;BME280;52002;49.760;6.512;2022-10-26T03:17:46;99756.97;;;12.83;77.46
65394;BME280;52002;49.760;6.512;2022-10-26T03:20:12;99760.20;;;12.87;77.27
65394;BME280;52002;49.760;6.512;2022-10-26T03:22:38;99761.36;;;12.88;77.29
65394;BME280;52002;49.760;6.512;2022-10-26T03:25:04;99766.72;;;12.88;77.37
65394;BME280;52002;49.760;6.512;2022-10-26T03:27:31;99770.09;;;12.90;77.38
65394;BME280;52002;49.760;6.512;2022-10-26T03:29:57;99766.06;;;12.90;77.29
65394;BME280;52002;49.760;6.512;2022-10-26T03:32:23;99763.70;;;12.87;77.35
65394;BME280;52002;49.760;6.512;2022-10-26T03:34:48;99769.37;;;12.84;77.32
65394;BME280;52002;49.760;6.512;2022-10-26T03:37:14;99765.69;;;12.85;77.44
65394;BME280;52002;49.760;6.512;2022-10-26T03:39:40;99762.53;;;12.86;77.50
65394;BME280;52002;49.760;6.512;2022-10-26T03:42:06;99756.00;;;12.88;77.44
65394;BME280;52002;49.760;6.512;2022-10-26T03:44:32;99755.18;;;12.92;77.49
65394;BME280;52002;49.760;6.512;2022-10-26T03:46:58;99765.76;;;12.94;77.54
65394;BME280;52002;49.760;6.512;2022-10-26T03:49:23;99769.78;;;12.94;77.63
65394;BME280;52002;49.760;6.512;2022-10-26T03:51:49;99761.09;;;12.96;77.54
65394;BME280;52002;49.760;6.512;2022-10-26T03:54:15;99759.41;;;12.99;77.49
65394;BME280;52002;49.760;6.512;2022-10-26T03:56:42;99752.39;;;12.98;77.36
65394;BME280;52002;49.760;6.512;2022-10-26T03:59:08;99752.39;;;12.98;77.42
65394;BME280;52002;49.760;6.512;2022-10-26T04:01:34;99756.38;;;12.94;77.37
65394;BME280;52002;49.760;6.512;2022-10-26T04:04:00;99750.34;;;12.92;77.34
65394;BME280;52002;49.760;6.512;2022-10-26T04:06:26;99761.02;;;12.87;77.34
65394;BME280;52002;49.760;6.512;2022-10-26T04:08:52;99767.03;;;12.85;77.39
65394;BME280;52002;49.760;6.512;2022-10-26T04:11:19;99773.25;;;12.86;77.44
65394;BME280;52002;49.760;6.512;2022-10-26T04:13:46;99765.69;;;12.85;77.51
65394;BME280;52002;49.760;6.512;2022-10-26T04:16:12;99773.59;;;12.87;77.66
65394;BME280;52002;49.760;6.512;2022-10-26T04:18:38;99775.76;;;12.87;77.68
65394;BME280;52002;49.760;6.512;2022-10-26T04:21:04;99774.72;;;12.84;77.66
65394;BME280;52002;49.760;6.512;2022-10-26T04:23:30;99772.05;;;12.84;77.75
65394;BME280;52002;49.760;6.512;2022-10-26T04:25:56;99769.53;;;12.83;77.73
65394;BME280;52002;49.760;6.512;2022-10-26T04:28:22;99763.66;;;12.83;77.65
65394;BME280;52002;49.760;6.512;2022-10-26T04:30:48;99769.02;;;12.83;77.84
65394;BME280;52002;49.760;6.512;2022-10-26T04:33:14;99765.52;;;12.83;77.69
65394;BME280;52002;49.760;6.512;2022-10-26T04:35:40;99765.83;;;12.80;77.80
65394;BME280;52002;49.760;6.512;2022-10-26T04:38:09;99775.68;;;12.75;77.85
65394;BME280;52002;49.760;6.512;2022-10-26T04:40:35;99775.95;;;12.68;77.65
65394;BME280;52002;49.760;6.512;2022-10-26T04:43:01;99782.64;;;12.64;77.67
65394;BME280;52002;49.760;6.512;2022-10-26T04:45:27;99777.24;;;12.59;77.70
65394;BME280;52002;49.760;6.512;2022-10-26T04:48:06;99777.72;;;12.55;77.82
65394;BME280;52002;49.760;6.512;2022-10-26T04:50:34;99777.47;;;12.48;77.85
65394;BME280;52002;49.760;6.512;2022-10-26T04:53:01;99788.47;;;12.41;77.93
65394;BME280;52002;49.760;6.512;2022-10-26T04:55:28;99789.77;;;12.37;78.17
65394;BME280;52002;49.760;6.512;2022-10-26T04:57:54;99798.44;;;12.35;78.40
65394;BME280;52002;49.760;6.512;2022-10-26T05:00:20;99792.27;;;12.34;78.37
65394;BME280;52002;49.760;6.512;2022-10-26T05:02:46;99792.09;;;12.36;78.27
65394;BME280;52002;49.760;6.512;2022-10-26T05:05:12;99785.92;;;12.39;78.16
65394;BME280;52002;49.760;6.512;2022-10-26T05:07:39;99786.14;;;12.42;78.01
65394;BME280;52002;49.760;6.512;2022-10-26T05:10:06;99789.11;;;12.39;77.96
65394;BME280;52002;49.760;6.512;2022-10-26T05:12:32;99795.81;;;12.39;78.16
65394;BME280;52002;49.760;6.512;2022-10-26T05:14:58;99799.17;;;12.41;78.33
65394;BME280;52002;49.760;6.512;2022-10-26T05:17:25;99797.88;;;12.45;78.38
65394;BME280;52002;49.760;6.512;2022-10-26T05:19:51;99800.92;;;12.50;78.37
65394;BME280;52002;49.760;6.512;2022-10-26T05:22:22;99804.28;;;12.52;78.24
65394;BME280;52002;49.760;6.512;2022-10-26T05:24:49;99809.98;;;12.53;78.18
65394;BME280;52002;49.760;6.512;2022-10-26T05:27:15;99803.30;;;12.53;78.17
65394;BME280;52002;49.760;6.512;2022-10-26T05:29:41;99807.66;;;12.54;78.22
65394;BME280;52002;49.760;6.512;2022-10-26T05:32:07;99801.61;;;12.52;78.23
65394;BME280;52002;49.760;6.512;2022-10-26T05:34:33;99796.46;;;12.55;78.36
65394;BME280;52002;49.760;6.512;2022-10-26T05:36:59;99802.69;;;12.59;78.46
65394;BME280;52002;49.760;6.512;2022-10-26T05:39:25;99809.73;;;12.65;78.53
65394;BME280;52002;49.760;6.512;2022-10-26T05:41:51;99806.06;;;12.66;78.35
65394;BME280;52002;49.760;6.512;2022-10-26T05:44:17;99814.44;;;12.67;78.44
65394;BME280;52002;49.760;6.512;2022-10-26T05:46:42;99821.95;;;12.63;78.27
65394;BME280;52002;49.760;6.512;2022-10-26T05:49:11;99826.27;;;12.60;78.23
65394;BME280;52002;49.760;6.512;2022-10-26T05:51:37;99825.93;;;12.59;78.29
65394;BME280;52002;49.760;6.512;2022-10-26T05:54:04;99830.80;;;12.59;78.30
65394;BME280;52002;49.760;6.512;2022-10-26T05:56:38;99836.64;;;12.59;78.38
65394;BME280;52002;49.760;6.512;2022-10-26T05:59:14;99840.83;;;12.57;78.41
65394;BME280;52002;49.760;6.512;2022-10-26T06:02:01;99847.17;;;12.56;78.44
65394;BME280;52002;49.760;6.512;2022-10-26T06:04:37;99845.44;;;12.51;78.53
65394;BME280;52002;49.760;6.512;2022-10-26T06:07:18;99854.98;;;12.50;78.55
65394;BME280;52002;49.760;6.512;2022-10-26T06:09:46;99858.14;;;12.49;78.55
65394;BME280;52002;49.760;6.512;2022-10-26T06:12:14;99864.19;;;12.51;78.61
65394;BME280;52002;49.760;6.512;2022-10-26T06:14:41;99867.56;;;12.53;78.68
65394;BME280;52002;49.760;6.512;2022-10-26T06:20:15;99867.56;;;12.53;78.58
65394;BME280;52002;49.760;6.512;2022-10-26T06:22:58;99872.91;;;12.53;78.69
65394;BME280;52002;49.760;6.512;2022-10-26T06:31:20;99899.16;;;12.50;78.43
65394;BME280;52002;49.760;6.512;2022-10-26T06:33:47;99893.59;;;12.47;78.56
65394;BME280;52002;49.760;6.512;2022-10-26T06:36:18;99898.93;;;12.43;78.62
65394;BME280;52002;49.760;6.512;2022-10-26T06:39:00;99897.84;;;12.36;78.66
65394;BME280;52002;49.760;6.512;2022-10-26T06:41:32;99891.44;;;12.33;78.72
65394;BME280;52002;49.760;6.512;2022-10-26T06:43:59;99894.76;;;12.30;78.64
65394;BME280;52002;49.760;6.512;2022-10-26T06:46:47;99891.07;;;12.27;78.66
65394;BME280;52002;49.760;6.512;2022-10-26T06:55:14;99907.30;;;12.12;78.85
65394;BME280;52002;49.760;6.512;2022-10-26T06:57:42;99906.27;;;12.13;78.86
65394;BME280;52002;49.760;6.512;2022-10-26T07:02:45;99918.00;;;12.12;78.70
65394;BME280;52002;49.760;6.512;2022-10-26T07:05:12;99923.78;;;12.21;78.99
65394;BME280;52002;49.760;6.512;2022-10-26T07:07:45;99926.59;;;12.34;79.01
65394;BME280;52002;49.760;6.512;2022-10-26T07:10:10;99933.76;;;12.47;78.91
65394;BME280;52002;49.760;6.512;2022-10-26T07:12:36;99933.22;;;12.57;78.75
65394;BME280;52002;49.760;6.512;2022-10-26T07:15:03;99939.84;;;12.67;78.52
65394;BME280;52002;49.760;6.512;2022-10-26T07:17:30;99939.03;;;12.71;78.31
65394;BME280;52002;49.760;6.512;2022-10-26T07:19:56;99948.76;;;12.72;78.25
65394;BME280;52002;49.760;6.512;2022-10-26T07:22:23;99955.29;;;12.73;78.24
65394;BME280;52002;49.760;6.512;2022-10-26T07:24:49;99955.34;;;12.78;78.31
65394;BME280;52002;49.760;6.512;2022-10-26T07:27:17;99966.27;;;12.80;78.29
65394;BME280;52002;49.760;6.512;2022-10-26T07:29:47;99959.23;;;12.83;78.20
65394;BME280;52002;49.760;6.512;2022-10-26T07:32:13;99967.62;;;12.84;78.20
65394;BME280;52002;49.760;6.512;2022-10-26T07:34:39;99971.39;;;12.92;78.29
65394;BME280;52002;49.760;6.512;2022-10-26T07:37:05;99977.48;;;12.98;78.12
65394;BME280;52002;49.760;6.512;2022-10-26T07:39:31;99973.18;;;13.05;78.14
65394;BME280;52002;49.760;6.512;2022-10-26T07:41:57;99969.25;;;13.13;78.10
65394;BME280;52002;49.760;6.512;2022-10-26T07:44:23;99974.97;;;13.18;77.93
65394;BME280;52002;49.760;6.512;2022-10-26T07:46:50;99984.05;;;13.21;77.78
65394;BME280;52002;49.760;6.512;2022-10-26T07:49:16;99997.31;;;13.23;77.65
65394;BME280;52002;49.760;6.512;2022-10-26T07:51:43;100006.36;;;13.26;77.61
65394;BME280;52002;49.760;6.512;2022-10-26T07:54:09;100007.57;;;13.28;77.64
65394;BME280;52002;49.760;6.512;2022-10-26T07:56:34;100008.95;;;13.32;77.71
65394;BME280;52002;49.760;6.512;2022-10-26T07:59:00;100011.72;;;13.40;77.69
65394;BME280;52002;49.760;6.512;2022-10-26T08:01:26;100009.13;;;13.53;77.76
65394;BME280;52002;49.760;6.512;2022-10-26T08:03:53;100018.63;;;13.69;77.62
65394;BME280;52002;49.760;6.512;2022-10-26T08:06:22;100013.55;;;13.84;77.21
65394;BME280;52002;49.760;6.512;2022-10-26T08:08:49;100018.50;;;14.01;77.05
65394;BME280;52002;49.760;6.512;2022-10-26T08:11:16;100012.73;;;14.18;76.84
65394;BME280;52002;49.760;6.512;2022-10-26T08:13:42;100014.16;;;14.35;76.75
65394;BME280;52002;49.760;6.512;2022-10-26T08:16:08;100010.34;;;14.46;76.61
65394;BME280;52002;49.760;6.512;2022-10-26T08:18:34;100015.05;;;14.52;76.52
65394;BME280;52002;49.760;6.512;2022-10-26T08:21:09;100020.30;;;14.57;76.63
65394;BME280;52002;49.760;6.512;2022-10-26T08:23:39;100021.52;;;14.67;76.79
65394;BME280;52002;49.760;6.512;2022-10-26T08:26:06;100023.58;;;14.78;76.79
65394;BME280;52002;49.760;6.512;2022-10-26T08:28:36;100028.95;;;14.86;76.69
65394;BME280;52002;49.760;6.512;2022-10-26T08:31:07;100030.34;;;14.94;76.77
65394;BME280;52002;49.760;6.512;2022-10-26T08:33:34;100030.67;;;15.03;76.79
65394;BME280;52002;49.760;6.512;2022-10-26T08:36:03;100041.11;;;15.07;76.70
65394;BME280;52002;49.760;6.512;2022-10-26T08:38:29;100052.56;;;15.13;76.76
65394;BME280;52002;49.760;6.512;2022-10-26T08:41:04;100062.97;;;15.20;76.77
65394;BME280;52002;49.760;6.512;2022-10-26T08:46:23;100062.33;;;15.30;76.77
65394;BME280;52002;49.760;6.512;2022-10-26T08:48:58;100060.14;;;15.34;76.85
65394;BME280;52002;49.760;6.512;2022-10-26T08:51:31;100061.32;;;15.40;77.06
65394;BME280;52002;49.760;6.512;2022-10-26T08:54:09;100063.85;;;15.50;76.98
65394;BME280;52002;49.760;6.512;2022-10-26T08:56:43;100069.41;;;15.60;76.85
65394;BME280;52002;49.760;6.512;2022-10-26T08:59:17;100068.75;;;15.71;76.69
65394;BME280;52002;49.760;6.512;2022-10-26T09:01:51;100074.97;;;15.80;76.71
65394;BME280;52002;49.760;6.512;2022-10-26T09:04:21;100069.60;;;15.88;76.58
65394;BME280;52002;49.760;6.512;2022-10-26T09:09:56;100071.41;;;16.08;76.13
65394;BME280;52002;49.760;6.512;2022-10-26T09:12:46;100078.48;;;16.21;76.08
65394;BME280;52002;49.760;6.512;2022-10-26T09:18:47;100074.35;;;16.46;75.54
65394;BME280;52002;49.760;6.512;2022-10-26T09:22:05;100088.11;;;16.60;75.35
65394;BME280;52002;49.760;6.512;2022-10-26T09:24:50;100083.72;;;16.67;74.96
65394;BME280;52002;49.760;6.512;2022-10-26T09:27:29;100089.05;;;16.75;74.78
65394;BME280;52002;49.760;6.512;2022-10-26T09:30:18;100089.03;;;16.83;74.59
65394;BME280;52002;49.760;6.512;2022-10-26T09:32:48;100095.08;;;16.90;74.25
65394;BME280;52002;49.760;6.512;2022-10-26T09:38:43;100101.13;;;16.96;74.05
65394;BME280;52002;49.760;6.512;2022-10-26T09:40:37;100102.80;;;16.93;73.94
65394;BME280;52002;49.760;6.512;2022-10-26T09:43:09;100100.98;;;16.85;74.02
65394;BME280;52002;49.760;6.512;2022-10-26T09:45:51;100103.20;;;16.77;74.03
65394;BME280;52002;49.760;6.512;2022-10-26T09:48:30;100109.65;;;16.72;74.14
65394;BME280;52002;49.760;6.512;2022-10-26T09:51:01;100105.44;;;16.65;74.25
65394;BME280;52002;49.760;6.512;2022-10-26T09:53:27;100109.86;;;16.58;74.37
65394;BME280;52002;49.760;6.512;2022-10-26T09:56:13;100111.73;;;16.53;74.64
65394;BME280;52002;49.760;6.512;2022-10-26T09:58:42;100115.39;;;16.65;74.68
65394;BME280;52002;49.760;6.512;2022-10-26T10:09:33;100142.23;;;17.06;74.45
65394;BME280;52002;49.760;6.512;2022-10-26T10:12:01;100135.43;;;17.14;73.99
65394;BME280;52002;49.760;6.512;2022-10-26T10:14:31;100150.92;;;17.21;73.92
65394;BME280;52002;49.760;6.512;2022-10-26T10:17:00;100148.52;;;17.26;73.86
65394;BME280;52002;49.760;6.512;2022-10-26T10:19:30;100154.89;;;17.33;73.84
65394;BME280;52002;49.760;6.512;2022-10-26T10:22:08;100156.23;;;17.37;73.68
65394;BME280;52002;49.760;6.512;2022-10-26T10:24:55;100159.55;;;17.43;73.50
65394;BME280;52002;49.760;6.512;2022-10-26T10:27:23;100149.39;;;17.50;73.54
65394;BME280;52002;49.760;6.512;2022-10-26T10:29:51;100155.11;;;17.55;73.37
65394;BME280;52002;49.760;6.512;2022-10-26T10:32:22;100157.27;;;17.59;73.21
65394;BME280;52002;49.760;6.512;2022-10-26T10:34:51;100162.12;;;17.64;73.25
65394;BME280;52002;49.760;6.512;2022-10-26T10:37:36;100162.09;;;17.68;73.08
65394;BME280;52002;49.760;6.512;2022-10-26T10:40:14;100164.42;;;17.75;72.93
65394;BME280;52002;49.760;6.512;2022-10-26T10:42:49;100163.02;;;17.80;72.64
65394;BME280;52002;49.760;6.512;2022-10-26T10:45:25;100160.62;;;17.85;72.69
65394;BME280;52002;49.760;6.512;2022-10-26T10:50:55;100160.19;;;17.96;72.60
65394;BME280;52002;49.760;6.512;2022-10-26T10:53:34;100151.73;;;18.03;72.59
65394;BME280;52002;49.760;6.512;2022-10-26T10:56:27;100157.80;;;18.05;72.37
65394;BME280;52002;49.760;6.512;2022-10-26T11:01:49;100154.84;;;18.15;72.05
65394;BME280;52002;49.760;6.512;2022-10-26T11:04:49;100156.13;;;18.19;72.02
65394;BME280;52002;49.760;6.512;2022-10-26T11:07:19;100154.85;;;18.30;71.99
65394;BME280;52002;49.760;6.512;2022-10-26T11:09:48;100160.85;;;18.41;72.02
65394;BME280;52002;49.760;6.512;2022-10-26T11:12:20;100161.08;;;18.50;71.73
65394;BME280;52002;49.760;6.512;2022-10-26T11:14:57;100160.02;;;18.55;71.46
65394;BME280;52002;49.760;6.512;2022-10-26T11:17:30;100166.74;;;18.59;71.45
65394;BME280;52002;49.760;6.512;2022-10-26T11:20:00;100158.56;;;18.63;71.32
65394;BME280;52002;49.760;6.512;2022-10-26T11:25:50;100160.45;;;18.78;71.31
65394;BME280;52002;49.760;6.512;2022-10-26T11:28:46;100158.80;;;18.88;70.99
65394;BME280;52002;49.760;6.512;2022-10-26T11:31:23;100165.50;;;18.96;70.82
65394;BME280;52002;49.760;6.512;2022-10-26T11:34:26;100167.68;;;18.96;70.46
65394;BME280;52002;49.760;6.512;2022-10-26T11:37:02;100167.52;;;18.98;70.69
65394;BME280;52002;49.760;6.512;2022-10-26T11:39:56;100164.23;;;19.03;70.76
65394;BME280;52002;49.760;6.512;2022-10-26T11:42:51;100173.66;;;19.07;70.43
65394;BME280;52002;49.760;6.512;2022-10-26T11:50:35;100189.23;;;19.05;70.08
65394;BME280;52002;49.760;6.512;2022-10-26T11:53:16;100181.41;;;19.10;70.28
65394;BME280;52002;49.760;6.512;2022-10-26T11:55:49;100188.75;;;19.16;70.06
65394;BME280;52002;49.760;6.512;2022-10-26T11:58:17;100183.32;;;19.31;69.87
65394;BME280;52002;49.760;6.512;2022-10-26T12:00:55;100189.09;;;19.43;69.55
65394;BME280;52002;49.760;6.512;2022-10-26T12:03:27;100196.50;;;19.56;69.12
65394;BME280;52002;49.760;6.512;2022-10-26T12:05:55;100199.39;;;19.80;67.81
65394;BME280;52002;49.760;6.512;2022-10-26T12:08:42;100203.73;;;19.96;67.12
65394;BME280;52002;49.760;6.512;2022-10-26T12:14:24;100204.23;;;20.17;65.63
65394;BME280;52002;49.760;6.512;2022-10-26T12:17:20;100200.33;;;20.49;64.97
65394;BME280;52002;49.760;6.512;2022-10-26T12:23:13;100205.88;;;20.97;63.49
65394;BME280;52002;49.760;6.512;2022-10-26T12:25:39;100213.69;;;21.14;62.53
65394;BME280;52002;49.760;6.512;2022-10-26T12:28:37;100203.66;;;21.14;62.09
65394;BME280;52002;49.760;6.512;2022-10-26T12:30:48;100199.94;;;21.22;61.77
65394;BME280;52002;49.760;6.512;2022-10-26T12:33:28;100209.30;;;21.13;61.60
65394;BME280;52002;49.760;6.512;2022-10-26T12:35:55;100213.20;;;21.03;61.74
65394;BME280;52002;49.760;6.512;2022-10-26T12:38:41;100216.63;;;21.01;61.56
65394;BME280;52002;49.760;6.512;2022-10-26T12:41:10;100214.34;;;20.98;61.50
65394;BME280;52002;49.760;6.512;2022-10-26T12:43:55;100221.02;;;21.02;61.56
65394;BME280;52002;49.760;6.512;2022-10-26T12:49:06;100213.92;;;20.84;61.25
65394;BME280;52002;49.760;6.512;2022-10-26T12:54:24;100215.06;;;20.79;61.60
65394;BME280;52002;49.760;6.512;2022-10-26T13:02:46;100222.34;;;20.67;61.47
65394;BME280;52002;49.760;6.512;2022-10-26T13:08:24;100217.98;;;20.66;61.10
65394;BME280;52002;49.760;6.512;2022-10-26T13:11:16;100225.38;;;20.68;61.33
65394;BME280;52002;49.760;6.512;2022-10-26T13:13:53;100235.19;;;20.69;61.17
65394;BME280;52002;49.760;6.512;2022-10-26T13:16:20;100239.47;;;20.68;60.65
65394;BME280;52002;49.760;6.512;2022-10-26T13:18:49;100230.48;;;20.67;60.49
65394;BME280;52002;49.760;6.512;2022-10-26T13:21:16;100236.11;;;20.66;60.61
65394;BME280;52002;49.760;6.512;2022-10-26T13:26:27;100243.01;;;20.68;60.28
65394;BME280;52002;49.760;6.512;2022-10-26T13:28:56;100261.93;;;20.72;60.23
65394;BME280;52002;49.760;6.512;2022-10-26T13:34:04;100247.59;;;20.89;60.26
65394;BME280;52002;49.760;6.512;2022-10-26T13:39:39;100253.77;;;21.12;59.58
65394;BME280;52002;49.760;6.512;2022-10-26T13:42:17;100245.66;;;21.18;59.13
65394;BME280;52002;49.760;6.512;2022-10-26T13:44:52;100244.55;;;21.23;58.93
65394;BME280;52002;49.760;6.512;2022-10-26T13:48:00;100247.79;;;21.30;58.61
65394;BME280;52002;49.760;6.512;2022-10-26T13:50:48;100245.53;;;21.33;57.87
65394;BME280;52002;49.760;6.512;2022-10-26T13:53:37;100244.78;;;21.35;57.57
65394;BME280;52002;49.760;6.512;2022-10-26T13:56:34;100254.92;;;21.37;57.19
65394;BME280;52002;49.760;6.512;2022-10-26T13:59:09;100255.17;;;21.43;57.18
65394;BME280;52002;49.760;6.512;2022-10-26T14:01:36;100261.48;;;21.50;56.48
65394;BME280;52002;49.760;6.512;2022-10-26T14:04:25;100264.67;;;21.60;56.38
65394;BME280;52002;49.760;6.512;2022-10-26T14:06:53;100258.78;;;21.74;56.01
65394;BME280;52002;49.760;6.512;2022-10-26T14:09:20;100270.95;;;21.92;55.94
65394;BME280;52002;49.760;6.512;2022-10-26T14:11:52;100269.30;;;22.11;55.48
65394;BME280;52002;49.760;6.512;2022-10-26T14:14:27;100267.77;;;22.33;54.77
65394;BME280;52002;49.760;6.512;2022-10-26T14:16:55;100275.33;;;22.57;54.05
65394;BME280;52002;49.760;6.512;2022-10-26T14:19:25;100282.23;;;22.80;53.68
65394;BME280;52002;49.760;6.512;2022-10-26T14:21:53;100284.71;;;23.09;53.44
65394;BME280;52002;49.760;6.512;2022-10-26T14:24:29;100284.46;;;23.37;52.80
65394;BME280;52002;49.760;6.512;2022-10-26T14:27:01;100292.25;;;23.79;52.07
65394;BME280;52002;49.760;6.512;2022-10-26T14:29:30;100295.27;;;24.42;51.39
65394;BME280;52002;49.760;6.512;2022-10-26T14:31:57;100296.03;;;24.99;50.48
65394;BME280;52002;49.760;6.512;2022-10-26T14:34:23;100291.91;;;25.62;49.86
65394;BME280;52002;49.760;6.512;2022-10-26T14:36:55;100303.91;;;25.70;49.31
65394;BME280;52002;49.760;6.512;2022-10-26T14:39:38;100302.45;;;25.68;48.69
65394;BME280;52002;49.760;6.512;2022-10-26T14:42:47;100300.93;;;25.72;48.41
65394;BME280;52002;49.760;6.512;2022-10-26T14:44:52;100301.54;;;25.74;47.58
65394;BME280;52002;49.760;6.512;2022-10-26T14:47:35;100312.02;;;25.40;47.87
65394;BME280;52002;49.760;6.512;2022-10-26T14:50:02;100307.91;;;25.21;47.93
65394;BME280;52002;49.760;6.512;2022-10-26T14:52:34;100305.59;;;24.90;48.15
65394;BME280;52002;49.760;6.512;2022-10-26T14:57:38;100307.75;;;25.35;48.20
65394;BME280;52002;49.760;6.512;2022-10-26T15:00:18;100313.81;;;25.93;47.83
65394;BME280;52002;49.760;6.512;2022-10-26T15:02:51;100321.83;;;27.03;46.90
65394;BME280;52002;49.760;6.512;2022-10-26T15:05:27;100321.48;;;28.48;45.36
65394;BME280;52002;49.760;6.512;2022-10-26T15:07:57;100319.81;;;29.55;44.16